sensor_id;sensor_type;location;lat;lon;timestamp;temperature;humidity
26599;DHT22;14240;51.064;16.612;2022-08-02T00:00:11;18.60;99.90
26599;DHT22;14240;51.064;16.612;2022-08-02T00:02:38;18.60;99.90
26599;DHT22;14240;51.064;16.612;2022-08-02T00:05:04;18.60;99.90
26599;DHT22;14240;51.064;16.612;2022-08-02T00:07:30;18.60;99.90
26599;DHT22;14240;51.064;16.612;2022-08-02T00:09:56;18.60;99.90
26599;DHT22;14240;51.064;16.612;2022-08-02T00:12:22;18.60;99.90
26599;DHT22;14240;51.064;16.612;2022-08-02T00:14:47;18.60;99.90
26599;DHT22;14240;51.064;16.612;2022-08-02T00:17:13;18.60;99.90
26599;DHT22;14240;51.064;16.612;2022-08-02T00:19:38;18.60;99.90
26599;DHT22;14240;51.064;16.612;2022-08-02T00:22:04;18.60;99.90
26599;DHT22;14240;51.064;16.612;2022-08-02T00:24:30;18.60;99.90
26599;DHT22;14240;51.064;16.612;2022-08-02T00:26:55;18.60;99.90
26599;DHT22;14240;51.064;16.612;2022-08-02T00:29:21;18.60;99.90
26599;DHT22;14240;51.064;16.612;2022-08-02T00:31:47;18.50;99.90
26599;DHT22;14240;51.064;16.612;2022-08-02T00:34:12;18.60;99.90
26599;DHT22;14240;51.064;16.612;2022-08-02T00:36:39;18.50;99.90
26599;DHT22;14240;51.064;16.612;2022-08-02T00:39:05;18.60;99.90
26599;DHT22;14240;51.064;16.612;2022-08-02T00:41:30;18.50;99.90
26599;DHT22;14240;51.064;16.612;2022-08-02T00:43:56;18.50;99.90
26599;DHT22;14240;51.064;16.612;2022-08-02T00:46:22;18.50;99.90
26599;DHT22;14240;51.064;16.612;2022-08-02T00:48:47;18.50;99.90
26599;DHT22;14240;51.064;16.612;2022-08-02T00:51:14;18.50;99.90
26599;DHT22;14240;51.064;16.612;2022-08-02T00:53:40;18.60;99.90
26599;DHT22;14240;51.064;16.612;2022-08-02T00:56:06;18.60;99.90
26599;DHT22;14240;51.064;16.612;2022-08-02T00:58:32;18.60;99.90
26599;DHT22;14240;51.064;16.612;2022-08-02T01:00:57;18.70;99.90
26599;DHT22;14240;51.064;16.612;2022-08-02T01:03:25;18.60;99.90
26599;DHT22;14240;51.064;16.612;2022-08-02T01:05:51;18.70;99.90
26599;DHT22;14240;51.064;16.612;2022-08-02T01:08:17;18.60;99.90
26599;DHT22;14240;51.064;16.612;2022-08-02T01:10:43;18.70;99.90
26599;DHT22;14240;51.064;16.612;2022-08-02T01:13:09;18.60;99.90
26599;DHT22;14240;51.064;16.612;2022-08-02T01:15:39;18.60;99.90
26599;DHT22;14240;51.064;16.612;2022-08-02T01:18:08;18.60;99.90
26599;DHT22;14240;51.064;16.612;2022-08-02T01:26:54;18.60;99.90
26599;DHT22;14240;51.064;16.612;2022-08-02T01:34:20;18.50;99.90
26599;DHT22;14240;51.064;16.612;2022-08-02T01:36:59;18.50;99.90
26599;DHT22;14240;51.064;16.612;2022-08-02T01:39:28;18.40;99.90
26599;DHT22;14240;51.064;16.612;2022-08-02T01:41:56;18.40;99.90
26599;DHT22;14240;51.064;16.612;2022-08-02T01:44:24;18.40;99.90
26599;DHT22;14240;51.064;16.612;2022-08-02T01:46:52;18.30;99.90
26599;DHT22;14240;51.064;16.612;2022-08-02T01:49:21;18.00;99.90
26599;DHT22;14240;51.064;16.612;2022-08-02T01:51:50;18.30;99.90
26599;DHT22;14240;51.064;16.612;2022-08-02T01:54:35;18.20;99.90
26599;DHT22;14240;51.064;16.612;2022-08-02T01:57:04;18.20;99.90
26599;DHT22;14240;51.064;16.612;2022-08-02T01:59:31;18.10;99.90
26599;DHT22;14240;51.064;16.612;2022-08-02T02:01:58;18.10;99.90
26599;DHT22;14240;51.064;16.612;2022-08-02T02:04:27;18.00;99.90
26599;DHT22;14240;51.064;16.612;2022-08-02T02:06:55;18.00;99.90
26599;DHT22;14240;51.064;16.612;2022-08-02T02:09:24;18.00;99.90
26599;DHT22;14240;51.064;16.612;2022-08-02T02:11:51;17.90;99.90
26599;DHT22;14240;51.064;16.612;2022-08-02T02:14:19;17.90;99.90
26599;DHT22;14240;51.064;16.612;2022-08-02T02:16:47;17.80;99.90
26599;DHT22;14240;51.064;16.612;2022-08-02T02:19:15;17.90;99.90
26599;DHT22;14240;51.064;16.612;2022-08-02T02:21:42;17.70;99.90
26599;DHT22;14240;51.064;16.612;2022-08-02T02:24:08;17.70;99.90
26599;DHT22;14240;51.064;16.612;2022-08-02T02:26:35;17.60;99.90
26599;DHT22;14240;51.064;16.612;2022-08-02T02:29:03;17.60;99.90
26599;DHT22;14240;51.064;16.612;2022-08-02T02:31:37;17.60;99.90
26599;DHT22;14240;51.064;16.612;2022-08-02T02:36:32;17.50;99.90
26599;DHT22;14240;51.064;16.612;2022-08-02T02:39:00;17.50;99.90
26599;DHT22;14240;51.064;16.612;2022-08-02T02:41:27;17.50;99.90
26599;DHT22;14240;51.064;16.612;2022-08-02T02:43:54;17.50;99.90
26599;DHT22;14240;51.064;16.612;2022-08-02T02:46:21;17.50;99.90
26599;DHT22;14240;51.064;16.612;2022-08-02T02:48:51;17.50;99.90
26599;DHT22;14240;51.064;16.612;2022-08-02T02:51:18;17.50;99.90
26599;DHT22;14240;51.064;16.612;2022-08-02T02:53:45;17.50;99.90
26599;DHT22;14240;51.064;16.612;2022-08-02T02:56:13;17.40;99.90
26599;DHT22;14240;51.064;16.612;2022-08-02T02:58:39;17.40;99.90
26599;DHT22;14240;51.064;16.612;2022-08-02T03:01:05;17.40;99.90
26599;DHT22;14240;51.064;16.612;2022-08-02T03:03:51;17.40;99.90
26599;DHT22;14240;51.064;16.612;2022-08-02T03:06:18;17.40;99.90
26599;DHT22;14240;51.064;16.612;2022-08-02T03:08:44;17.40;99.90
26599;DHT22;14240;51.064;16.612;2022-08-02T03:11:10;17.40;99.90
26599;DHT22;14240;51.064;16.612;2022-08-02T03:13:36;17.30;99.90
26599;DHT22;14240;51.064;16.612;2022-08-02T03:16:03;17.30;99.90
26599;DHT22;14240;51.064;16.612;2022-08-02T03:18:34;17.30;99.90
26599;DHT22;14240;51.064;16.612;2022-08-02T03:21:01;17.30;99.90
26599;DHT22;14240;51.064;16.612;2022-08-02T03:23:28;17.20;99.90
26599;DHT22;14240;51.064;16.612;2022-08-02T03:25:54;17.20;99.90
26599;DHT22;14240;51.064;16.612;2022-08-02T03:28:19;17.20;99.90
26599;DHT22;14240;51.064;16.612;2022-08-02T03:30:45;17.20;99.90
26599;DHT22;14240;51.064;16.612;2022-08-02T03:33:10;17.20;99.90
26599;DHT22;14240;51.064;16.612;2022-08-02T03:35:37;17.20;99.90
26599;DHT22;14240;51.064;16.612;2022-08-02T03:38:05;17.20;99.90
26599;DHT22;14240;51.064;16.612;2022-08-02T03:40:31;17.10;99.90
26599;DHT22;14240;51.064;16.612;2022-08-02T03:42:58;17.10;99.90
26599;DHT22;14240;51.064;16.612;2022-08-02T03:45:25;17.10;99.90
26599;DHT22;14240;51.064;16.612;2022-08-02T03:47:50;17.10;99.90
26599;DHT22;14240;51.064;16.612;2022-08-02T03:50:17;17.00;99.90
26599;DHT22;14240;51.064;16.612;2022-08-02T03:52:44;17.00;99.90
26599;DHT22;14240;51.064;16.612;2022-08-02T03:55:11;17.00;99.90
26599;DHT22;14240;51.064;16.612;2022-08-02T03:57:39;17.00;99.90
26599;DHT22;14240;51.064;16.612;2022-08-02T04:00:07;17.00;99.90
26599;DHT22;14240;51.064;16.612;2022-08-02T04:02:34;17.00;99.90
26599;DHT22;14240;51.064;16.612;2022-08-02T04:04:59;17.00;99.90
26599;DHT22;14240;51.064;16.612;2022-08-02T04:07:25;17.00;99.90
26599;DHT22;14240;51.064;16.612;2022-08-02T04:09:50;17.00;99.90
26599;DHT22;14240;51.064;16.612;2022-08-02T04:12:16;16.90;99.90
26599;DHT22;14240;51.064;16.612;2022-08-02T04:14:42;17.00;99.90
26599;DHT22;14240;51.064;16.612;2022-08-02T04:17:08;17.00;99.90
26599;DHT22;14240;51.064;16.612;2022-08-02T04:19:42;17.00;99.90
26599;DHT22;14240;51.064;16.612;2022-08-02T04:22:15;17.10;99.90
26599;DHT22;14240;51.064;16.612;2022-08-02T04:24:48;17.00;99.90
26599;DHT22;14240;51.064;16.612;2022-08-02T04:27:18;17.10;99.90
26599;DHT22;14240;51.064;16.612;2022-08-02T04:29:45;17.10;99.90
26599;DHT22;14240;51.064;16.612;2022-08-02T04:32:11;17.20;99.90
26599;DHT22;14240;51.064;16.612;2022-08-02T04:34:37;17.20;99.90
26599;DHT22;14240;51.064;16.612;2022-08-02T04:37:04;17.30;99.90
26599;DHT22;14240;51.064;16.612;2022-08-02T04:39:29;17.40;99.90
26599;DHT22;14240;51.064;16.612;2022-08-02T04:41:55;17.40;99.90
26599;DHT22;14240;51.064;16.612;2022-08-02T04:44:21;17.50;99.90
26599;DHT22;14240;51.064;16.612;2022-08-02T04:46:46;17.50;99.90
26599;DHT22;14240;51.064;16.612;2022-08-02T04:49:12;17.60;99.90
26599;DHT22;14240;51.064;16.612;2022-08-02T04:51:40;17.70;99.90
26599;DHT22;14240;51.064;16.612;2022-08-02T04:54:07;17.80;99.90
26599;DHT22;14240;51.064;16.612;2022-08-02T04:56:33;17.80;99.90
26599;DHT22;14240;51.064;16.612;2022-08-02T04:58:59;17.80;99.90
26599;DHT22;14240;51.064;16.612;2022-08-02T05:01:25;17.90;99.90
26599;DHT22;14240;51.064;16.612;2022-08-02T05:03:50;18.00;99.90
26599;DHT22;14240;51.064;16.612;2022-08-02T05:06:16;18.10;99.90
26599;DHT22;14240;51.064;16.612;2022-08-02T05:08:47;18.10;99.90
26599;DHT22;14240;51.064;16.612;2022-08-02T05:11:13;18.20;99.90
26599;DHT22;14240;51.064;16.612;2022-08-02T05:13:40;18.30;99.90
26599;DHT22;14240;51.064;16.612;2022-08-02T05:16:06;18.40;99.90
26599;DHT22;14240;51.064;16.612;2022-08-02T05:18:31;18.40;99.90
26599;DHT22;14240;51.064;16.612;2022-08-02T05:20:57;18.60;99.90
26599;DHT22;14240;51.064;16.612;2022-08-02T05:23:23;18.60;99.90
26599;DHT22;14240;51.064;16.612;2022-08-02T05:25:48;18.70;99.90
26599;DHT22;14240;51.064;16.612;2022-08-02T05:28:14;18.80;99.90
26599;DHT22;14240;51.064;16.612;2022-08-02T05:30:40;19.00;99.90
26599;DHT22;14240;51.064;16.612;2022-08-02T05:33:05;19.00;99.90
26599;DHT22;14240;51.064;16.612;2022-08-02T05:35:31;19.10;99.90
26599;DHT22;14240;51.064;16.612;2022-08-02T05:37:57;19.20;99.90
26599;DHT22;14240;51.064;16.612;2022-08-02T05:40:23;19.40;99.90
26599;DHT22;14240;51.064;16.612;2022-08-02T05:42:49;19.40;99.90
26599;DHT22;14240;51.064;16.612;2022-08-02T05:45:14;19.50;99.90
26599;DHT22;14240;51.064;16.612;2022-08-02T05:47:40;19.70;99.90
26599;DHT22;14240;51.064;16.612;2022-08-02T05:50:07;19.80;99.90
26599;DHT22;14240;51.064;16.612;2022-08-02T05:55:28;20.10;99.90
26599;DHT22;14240;51.064;16.612;2022-08-02T06:00:29;20.50;99.90
26599;DHT22;14240;51.064;16.612;2022-08-02T06:08:14;21.20;99.90
26599;DHT22;14240;51.064;16.612;2022-08-02T06:10:40;21.30;99.90
26599;DHT22;14240;51.064;16.612;2022-08-02T06:13:09;21.40;99.90
26599;DHT22;14240;51.064;16.612;2022-08-02T06:15:36;21.40;99.90
26599;DHT22;14240;51.064;16.612;2022-08-02T06:18:03;21.50;99.90
26599;DHT22;14240;51.064;16.612;2022-08-02T06:20:29;21.50;99.90
26599;DHT22;14240;51.064;16.612;2022-08-02T06:23:03;21.70;99.90
26599;DHT22;14240;51.064;16.612;2022-08-02T06:25:29;21.80;99.90
26599;DHT22;14240;51.064;16.612;2022-08-02T06:27:57;21.80;99.90
26599;DHT22;14240;51.064;16.612;2022-08-02T06:30:23;21.80;99.90
26599;DHT22;14240;51.064;16.612;2022-08-02T06:32:50;21.90;99.90
26599;DHT22;14240;51.064;16.612;2022-08-02T06:35:16;22.00;99.90
26599;DHT22;14240;51.064;16.612;2022-08-02T06:38:00;22.10;99.90
26599;DHT22;14240;51.064;16.612;2022-08-02T06:40:31;22.20;99.90
26599;DHT22;14240;51.064;16.612;2022-08-02T06:43:18;22.40;99.90
26599;DHT22;14240;51.064;16.612;2022-08-02T06:45:46;22.30;99.90
26599;DHT22;14240;51.064;16.612;2022-08-02T06:48:11;22.40;99.90
26599;DHT22;14240;51.064;16.612;2022-08-02T06:50:37;22.40;99.90
26599;DHT22;14240;51.064;16.612;2022-08-02T06:53:07;22.50;99.90
26599;DHT22;14240;51.064;16.612;2022-08-02T06:55:33;22.60;99.90
26599;DHT22;14240;51.064;16.612;2022-08-02T06:57:59;22.60;99.90
26599;DHT22;14240;51.064;16.612;2022-08-02T07:00:26;22.60;99.90
26599;DHT22;14240;51.064;16.612;2022-08-02T07:02:52;22.70;99.90
26599;DHT22;14240;51.064;16.612;2022-08-02T07:05:18;22.80;99.90
26599;DHT22;14240;51.064;16.612;2022-08-02T07:07:44;22.80;99.90
26599;DHT22;14240;51.064;16.612;2022-08-02T07:10:11;22.90;99.90
26599;DHT22;14240;51.064;16.612;2022-08-02T07:12:37;23.00;99.90
26599;DHT22;14240;51.064;16.612;2022-08-02T07:15:05;23.10;99.90
26599;DHT22;14240;51.064;16.612;2022-08-02T07:17:31;23.20;99.90
26599;DHT22;14240;51.064;16.612;2022-08-02T07:19:58;23.20;99.90
26599;DHT22;14240;51.064;16.612;2022-08-02T07:22:24;23.20;99.90
26599;DHT22;14240;51.064;16.612;2022-08-02T07:24:51;23.30;99.90
26599;DHT22;14240;51.064;16.612;2022-08-02T07:27:18;23.40;99.90
26599;DHT22;14240;51.064;16.612;2022-08-02T07:29:44;23.40;99.90
26599;DHT22;14240;51.064;16.612;2022-08-02T07:32:10;23.40;99.90
26599;DHT22;14240;51.064;16.612;2022-08-02T07:34:35;23.40;99.90
26599;DHT22;14240;51.064;16.612;2022-08-02T07:37:01;23.50;99.90
26599;DHT22;14240;51.064;16.612;2022-08-02T07:39:27;23.50;99.90
26599;DHT22;14240;51.064;16.612;2022-08-02T07:41:52;23.60;99.90
26599;DHT22;14240;51.064;16.612;2022-08-02T07:44:18;23.70;99.90
26599;DHT22;14240;51.064;16.612;2022-08-02T07:46:45;23.80;99.90
26599;DHT22;14240;51.064;16.612;2022-08-02T07:49:11;23.90;99.90
26599;DHT22;14240;51.064;16.612;2022-08-02T07:51:45;24.00;99.90
26599;DHT22;14240;51.064;16.612;2022-08-02T07:54:11;24.00;99.90
26599;DHT22;14240;51.064;16.612;2022-08-02T07:56:37;24.10;99.90
26599;DHT22;14240;51.064;16.612;2022-08-02T07:59:03;24.20;99.90
26599;DHT22;14240;51.064;16.612;2022-08-02T08:01:29;24.30;99.90
26599;DHT22;14240;51.064;16.612;2022-08-02T08:03:55;24.50;99.90
26599;DHT22;14240;51.064;16.612;2022-08-02T08:06:21;24.50;99.90
26599;DHT22;14240;51.064;16.612;2022-08-02T08:08:46;24.60;99.90
26599;DHT22;14240;51.064;16.612;2022-08-02T08:11:12;24.60;99.90
26599;DHT22;14240;51.064;16.612;2022-08-02T08:13:38;24.60;99.90
26599;DHT22;14240;51.064;16.612;2022-08-02T08:16:03;24.70;99.90
26599;DHT22;14240;51.064;16.612;2022-08-02T08:18:29;24.80;99.90
26599;DHT22;14240;51.064;16.612;2022-08-02T08:20:55;24.90;99.40
26599;DHT22;14240;51.064;16.612;2022-08-02T08:23:20;25.00;98.60
26599;DHT22;14240;51.064;16.612;2022-08-02T08:25:46;25.10;98.40
26599;DHT22;14240;51.064;16.612;2022-08-02T08:28:12;25.30;98.40
26599;DHT22;14240;51.064;16.612;2022-08-02T08:30:39;25.50;98.10
26599;DHT22;14240;51.064;16.612;2022-08-02T08:33:06;25.60;97.80
26599;DHT22;14240;51.064;16.612;2022-08-02T08:35:32;25.80;96.80
26599;DHT22;14240;51.064;16.612;2022-08-02T08:37:58;25.60;97.30
26599;DHT22;14240;51.064;16.612;2022-08-02T08:40:24;26.00;97.00
26599;DHT22;14240;51.064;16.612;2022-08-02T08:42:50;26.00;96.70
26599;DHT22;14240;51.064;16.612;2022-08-02T08:45:16;26.00;96.00
26599;DHT22;14240;51.064;16.612;2022-08-02T08:47:42;26.00;96.00
26599;DHT22;14240;51.064;16.612;2022-08-02T08:50:23;25.90;95.20
26599;DHT22;14240;51.064;16.612;2022-08-02T08:53:06;25.80;95.40
26599;DHT22;14240;51.064;16.612;2022-08-02T08:55:35;25.70;95.70
26599;DHT22;14240;51.064;16.612;2022-08-02T08:58:03;25.70;95.50
26599;DHT22;14240;51.064;16.612;2022-08-02T09:00:31;25.80;95.50
26599;DHT22;14240;51.064;16.612;2022-08-02T09:02:58;25.90;95.00
26599;DHT22;14240;51.064;16.612;2022-08-02T09:05:24;25.90;94.60
26599;DHT22;14240;51.064;16.612;2022-08-02T09:07:50;25.90;94.50
26599;DHT22;14240;51.064;16.612;2022-08-02T09:10:43;25.80;94.60
26599;DHT22;14240;51.064;16.612;2022-08-02T09:13:15;25.70;94.30
26599;DHT22;14240;51.064;16.612;2022-08-02T09:15:43;25.70;94.20
26599;DHT22;14240;51.064;16.612;2022-08-02T09:18:10;25.70;94.30
26599;DHT22;14240;51.064;16.612;2022-08-02T09:20:52;25.80;94.80
26599;DHT22;14240;51.064;16.612;2022-08-02T09:23:18;25.90;95.00
26599;DHT22;14240;51.064;16.612;2022-08-02T09:25:59;26.00;95.10
26599;DHT22;14240;51.064;16.612;2022-08-02T09:28:30;26.10;94.70
26599;DHT22;14240;51.064;16.612;2022-08-02T09:31:18;26.20;94.60
26599;DHT22;14240;51.064;16.612;2022-08-02T09:33:54;26.30;93.80
26599;DHT22;14240;51.064;16.612;2022-08-02T09:36:20;26.30;93.70
26599;DHT22;14240;51.064;16.612;2022-08-02T09:38:57;26.30;93.40
26599;DHT22;14240;51.064;16.612;2022-08-02T09:41:28;26.30;93.40
26599;DHT22;14240;51.064;16.612;2022-08-02T09:43:55;26.20;93.00
26599;DHT22;14240;51.064;16.612;2022-08-02T09:46:26;26.20;93.20
26599;DHT22;14240;51.064;16.612;2022-08-02T09:51:21;26.30;93.50
26599;DHT22;14240;51.064;16.612;2022-08-02T09:53:49;26.30;93.00
26599;DHT22;14240;51.064;16.612;2022-08-02T09:56:16;26.40;92.30
26599;DHT22;14240;51.064;16.612;2022-08-02T09:58:42;26.50;91.80
26599;DHT22;14240;51.064;16.612;2022-08-02T10:01:08;26.50;92.00
26599;DHT22;14240;51.064;16.612;2022-08-02T10:03:34;26.50;92.30
26599;DHT22;14240;51.064;16.612;2022-08-02T10:06:00;26.50;92.00
26599;DHT22;14240;51.064;16.612;2022-08-02T10:08:28;26.60;91.70
26599;DHT22;14240;51.064;16.612;2022-08-02T10:10:54;26.60;90.90
26599;DHT22;14240;51.064;16.612;2022-08-02T10:13:33;26.60;91.00
26599;DHT22;14240;51.064;16.612;2022-08-02T10:15:59;26.50;90.90
26599;DHT22;14240;51.064;16.612;2022-08-02T10:18:27;26.40;90.90
26599;DHT22;14240;51.064;16.612;2022-08-02T10:20:55;26.40;90.90
26599;DHT22;14240;51.064;16.612;2022-08-02T10:23:23;26.40;91.40
26599;DHT22;14240;51.064;16.612;2022-08-02T10:25:50;26.50;91.10
26599;DHT22;14240;51.064;16.612;2022-08-02T10:28:17;26.50;91.90
26599;DHT22;14240;51.064;16.612;2022-08-02T10:30:45;26.50;92.60
26599;DHT22;14240;51.064;16.612;2022-08-02T10:33:16;26.60;91.70
26599;DHT22;14240;51.064;16.612;2022-08-02T10:35:42;26.70;91.10
26599;DHT22;14240;51.064;16.612;2022-08-02T10:38:10;26.70;90.60
26599;DHT22;14240;51.064;16.612;2022-08-02T10:40:43;26.80;89.10
26599;DHT22;14240;51.064;16.612;2022-08-02T10:43:09;26.80;90.30
26599;DHT22;14240;51.064;16.612;2022-08-02T10:45:36;26.80;90.50
26599;DHT22;14240;51.064;16.612;2022-08-02T10:48:12;26.90;90.40
26599;DHT22;14240;51.064;16.612;2022-08-02T10:53:32;27.10;90.30
26599;DHT22;14240;51.064;16.612;2022-08-02T10:56:03;27.10;90.30
26599;DHT22;14240;51.064;16.612;2022-08-02T10:58:30;27.20;90.00
26599;DHT22;14240;51.064;16.612;2022-08-02T11:01:04;27.30;89.50
26599;DHT22;14240;51.064;16.612;2022-08-02T11:06:10;27.40;88.10
26599;DHT22;14240;51.064;16.612;2022-08-02T11:08:36;27.50;87.30
26599;DHT22;14240;51.064;16.612;2022-08-02T11:17:19;27.40;85.30
26599;DHT22;14240;51.064;16.612;2022-08-02T11:22:38;27.20;84.30
26599;DHT22;14240;51.064;16.612;2022-08-02T11:28:13;27.20;84.90
26599;DHT22;14240;51.064;16.612;2022-08-02T11:30:40;27.20;84.30
26599;DHT22;14240;51.064;16.612;2022-08-02T11:33:06;27.10;84.20
26599;DHT22;14240;51.064;16.612;2022-08-02T11:35:36;27.20;83.90
26599;DHT22;14240;51.064;16.612;2022-08-02T11:38:19;27.10;83.90
26599;DHT22;14240;51.064;16.612;2022-08-02T11:40:47;27.10;84.10
26599;DHT22;14240;51.064;16.612;2022-08-02T11:43:26;27.10;84.10
26599;DHT22;14240;51.064;16.612;2022-08-02T11:45:52;27.10;83.10
26599;DHT22;14240;51.064;16.612;2022-08-02T11:48:31;27.00;84.50
26599;DHT22;14240;51.064;16.612;2022-08-02T11:51:10;27.00;84.50
26599;DHT22;14240;51.064;16.612;2022-08-02T11:53:54;27.00;85.50
26599;DHT22;14240;51.064;16.612;2022-08-02T11:56:28;27.10;84.80
26599;DHT22;14240;51.064;16.612;2022-08-02T11:59:09;27.20;82.70
26599;DHT22;14240;51.064;16.612;2022-08-02T12:01:37;27.20;80.30
26599;DHT22;14240;51.064;16.612;2022-08-02T12:04:05;27.30;79.90
26599;DHT22;14240;51.064;16.612;2022-08-02T12:06:32;27.30;81.00
26599;DHT22;14240;51.064;16.612;2022-08-02T12:09:08;27.40;80.60
26599;DHT22;14240;51.064;16.612;2022-08-02T12:11:35;27.40;81.70
26599;DHT22;14240;51.064;16.612;2022-08-02T12:14:01;27.50;81.90
26599;DHT22;14240;51.064;16.612;2022-08-02T12:16:36;27.50;79.80
26599;DHT22;14240;51.064;16.612;2022-08-02T12:19:21;27.60;79.30
26599;DHT22;14240;51.064;16.612;2022-08-02T12:24:36;27.60;77.30
26599;DHT22;14240;51.064;16.612;2022-08-02T12:27:01;27.60;77.70
26599;DHT22;14240;51.064;16.612;2022-08-02T12:29:36;27.60;77.50
26599;DHT22;14240;51.064;16.612;2022-08-02T12:32:03;27.60;77.90
26599;DHT22;14240;51.064;16.612;2022-08-02T12:34:31;27.60;78.30
26599;DHT22;14240;51.064;16.612;2022-08-02T12:37:08;27.60;77.90
26599;DHT22;14240;51.064;16.612;2022-08-02T12:42:04;27.60;78.10
26599;DHT22;14240;51.064;16.612;2022-08-02T12:44:31;27.60;77.40
26599;DHT22;14240;51.064;16.612;2022-08-02T12:47:03;27.60;78.10
26599;DHT22;14240;51.064;16.612;2022-08-02T12:49:29;27.60;78.00
26599;DHT22;14240;51.064;16.612;2022-08-02T12:51:55;27.60;77.10
26599;DHT22;14240;51.064;16.612;2022-08-02T12:54:26;27.60;76.40
26599;DHT22;14240;51.064;16.612;2022-08-02T12:56:52;27.60;76.10
26599;DHT22;14240;51.064;16.612;2022-08-02T12:59:33;27.60;75.60
26599;DHT22;14240;51.064;16.612;2022-08-02T13:02:08;27.60;75.60
26599;DHT22;14240;51.064;16.612;2022-08-02T13:04:35;27.60;75.80
26599;DHT22;14240;51.064;16.612;2022-08-02T13:07:01;27.50;76.20
26599;DHT22;14240;51.064;16.612;2022-08-02T13:09:27;27.50;76.60
26599;DHT22;14240;51.064;16.612;2022-08-02T13:11:59;27.50;77.60
26599;DHT22;14240;51.064;16.612;2022-08-02T13:14:25;27.60;76.60
26599;DHT22;14240;51.064;16.612;2022-08-02T13:16:50;27.60;76.60
26599;DHT22;14240;51.064;16.612;2022-08-02T13:19:16;27.60;77.20
26599;DHT22;14240;51.064;16.612;2022-08-02T13:21:43;27.60;76.50
26599;DHT22;14240;51.064;16.612;2022-08-02T13:24:10;27.70;76.00
26599;DHT22;14240;51.064;16.612;2022-08-02T13:26:39;27.70;76.50
26599;DHT22;14240;51.064;16.612;2022-08-02T13:29:04;27.80;76.10
26599;DHT22;14240;51.064;16.612;2022-08-02T13:31:30;27.80;76.20
26599;DHT22;14240;51.064;16.612;2022-08-02T13:33:59;27.80;75.90
26599;DHT22;14240;51.064;16.612;2022-08-02T13:36:24;27.90;75.30
26599;DHT22;14240;51.064;16.612;2022-08-02T13:38:50;27.90;74.90
26599;DHT22;14240;51.064;16.612;2022-08-02T13:41:16;27.90;74.90
26599;DHT22;14240;51.064;16.612;2022-08-02T13:43:41;27.90;74.20
26599;DHT22;14240;51.064;16.612;2022-08-02T13:46:07;28.00;74.40
26599;DHT22;14240;51.064;16.612;2022-08-02T13:48:33;27.90;75.30
26599;DHT22;14240;51.064;16.612;2022-08-02T13:50:59;28.00;74.80
26599;DHT22;14240;51.064;16.612;2022-08-02T13:53:24;28.00;74.50
26599;DHT22;14240;51.064;16.612;2022-08-02T13:55:50;28.00;73.00
26599;DHT22;14240;51.064;16.612;2022-08-02T13:58:16;28.00;72.40
26599;DHT22;14240;51.064;16.612;2022-08-02T14:00:41;28.00;70.50
26599;DHT22;14240;51.064;16.612;2022-08-02T14:03:07;28.00;70.10
26599;DHT22;14240;51.064;16.612;2022-08-02T14:05:38;28.00;70.10
26599;DHT22;14240;51.064;16.612;2022-08-02T14:08:04;28.00;69.30
26599;DHT22;14240;51.064;16.612;2022-08-02T14:10:29;28.10;70.50
26599;DHT22;14240;51.064;16.612;2022-08-02T14:12:55;28.10;71.70
26599;DHT22;14240;51.064;16.612;2022-08-02T14:15:21;28.10;71.40
26599;DHT22;14240;51.064;16.612;2022-08-02T14:17:46;28.10;71.60
26599;DHT22;14240;51.064;16.612;2022-08-02T14:20:13;28.10;71.20
26599;DHT22;14240;51.064;16.612;2022-08-02T14:22:38;28.00;70.00
26599;DHT22;14240;51.064;16.612;2022-08-02T14:25:04;28.00;69.70
26599;DHT22;14240;51.064;16.612;2022-08-02T14:27:30;28.00;69.80
26599;DHT22;14240;51.064;16.612;2022-08-02T14:29:57;28.00;69.80
26599;DHT22;14240;51.064;16.612;2022-08-02T14:32:23;28.00;69.30
26599;DHT22;14240;51.064;16.612;2022-08-02T14:34:48;28.00;68.90
26599;DHT22;14240;51.064;16.612;2022-08-02T14:37:14;28.00;68.80
26599;DHT22;14240;51.064;16.612;2022-08-02T14:39:40;28.00;68.70
26599;DHT22;14240;51.064;16.612;2022-08-02T14:42:05;28.00;68.70
26599;DHT22;14240;51.064;16.612;2022-08-02T14:44:32;28.00;68.90
26599;DHT22;14240;51.064;16.612;2022-08-02T14:46:58;27.90;68.20
26599;DHT22;14240;51.064;16.612;2022-08-02T14:49:24;28.00;69.30
26599;DHT22;14240;51.064;16.612;2022-08-02T14:51:49;28.00;68.60
26599;DHT22;14240;51.064;16.612;2022-08-02T14:54:15;28.00;68.50
26599;DHT22;14240;51.064;16.612;2022-08-02T14:56:40;28.00;68.80
26599;DHT22;14240;51.064;16.612;2022-08-02T14:59:06;28.00;68.60
26599;DHT22;14240;51.064;16.612;2022-08-02T15:01:32;28.00;68.80
26599;DHT22;14240;51.064;16.612;2022-08-02T15:03:58;28.00;68.80
26599;DHT22;14240;51.064;16.612;2022-08-02T15:06:24;27.90;69.00
26599;DHT22;14240;51.064;16.612;2022-08-02T15:08:52;27.80;68.90
26599;DHT22;14240;51.064;16.612;2022-08-02T15:11:18;27.80;68.30
26599;DHT22;14240;51.064;16.612;2022-08-02T15:13:43;27.80;69.00
26599;DHT22;14240;51.064;16.612;2022-08-02T15:16:09;27.80;68.70
26599;DHT22;14240;51.064;16.612;2022-08-02T15:18:34;27.70;68.40
26599;DHT22;14240;51.064;16.612;2022-08-02T15:21:00;27.70;67.90
26599;DHT22;14240;51.064;16.612;2022-08-02T15:23:26;27.60;67.50
26599;DHT22;14240;51.064;16.612;2022-08-02T15:25:52;27.60;68.50
26599;DHT22;14240;51.064;16.612;2022-08-02T15:28:18;27.50;68.10
26599;DHT22;14240;51.064;16.612;2022-08-02T15:30:44;27.50;67.60
26599;DHT22;14240;51.064;16.612;2022-08-02T15:33:09;27.50;68.00
26599;DHT22;14240;51.064;16.612;2022-08-02T15:35:35;27.50;68.20
26599;DHT22;14240;51.064;16.612;2022-08-02T15:38:00;27.40;67.70
26599;DHT22;14240;51.064;16.612;2022-08-02T15:40:26;27.50;68.10
26599;DHT22;14240;51.064;16.612;2022-08-02T15:42:52;27.40;67.50
26599;DHT22;14240;51.064;16.612;2022-08-02T15:45:18;27.40;67.10
26599;DHT22;14240;51.064;16.612;2022-08-02T15:47:44;27.40;67.60
26599;DHT22;14240;51.064;16.612;2022-08-02T15:50:10;27.40;67.80
26599;DHT22;14240;51.064;16.612;2022-08-02T15:52:36;27.40;67.10
26599;DHT22;14240;51.064;16.612;2022-08-02T15:55:02;27.30;67.10
26599;DHT22;14240;51.064;16.612;2022-08-02T15:57:28;27.30;67.40
26599;DHT22;14240;51.064;16.612;2022-08-02T15:59:54;27.30;67.10
26599;DHT22;14240;51.064;16.612;2022-08-02T16:02:20;27.30;67.00
26599;DHT22;14240;51.064;16.612;2022-08-02T16:04:46;27.30;67.00
26599;DHT22;14240;51.064;16.612;2022-08-02T16:07:13;27.30;67.30